Strathblane, United Kingdom
Current Conditions -  °F | °C
As of 8:20 PM on Sunday 25 Jan 2015 (Local Time) from EGPF Reporting Station
Light Rain Light Rain  
Wind Chill: 42°   Ceiling: 3700
Heat Index: 46°   Visibility: 6mi
Dew Point: 45°   Wind: 9mph
Humidity: 93%   Direction: 260°W
Pressure: 30"   Gusts: NA
Location:  55.99°N, 4.31°W
Report Text: EGPF 252020Z 26008KT 9999 -RA FEW023 BKN037 08/07 Q1016
Loading
Personal Weather Stations






























Interactive Weather Map New forecast layout! Learn more

10-Day Weather Forecast

Advertisements
Track Severe Weather on mobile